Alton, Kansas
Current Conditions -  °F | °C
As of 3:53 PM on Sunday 25 Jan 2015 (Local Time) from KRSL Reporting Station
Clear Clear  
Wind Chill: 51°   Ceiling: Unl
Heat Index: 51°   Visibility: 10mi
Dew Point: 25°   Wind: 23mph
Humidity: 36%   Direction: 340°NNW
Pressure: 30.06"   Gusts: 29mph
Location:  39.47°N, 98.95°W
Report Text: KRSL 252153Z AUTO 34020G25KT 10SM CLR 11/M04 A3006 RMK AO2 PK WND 34027/2137 SLP183 T01061039
Loading
Personal Weather Stations






























Interactive Weather Map New forecast layout! Learn more

10-Day Weather Forecast

Advertisements
Track Severe Weather on mobile